sensor_id;sensor_type;location;lat;lon;timestamp;P1;durP1;ratioP1;P2;durP2;ratioP2
28523;SDS011;15734;50.904;6.922;2023-04-24T12:40:31;13.43;;;4.45;;
28523;SDS011;15734;50.904;6.922;2023-04-24T12:42:56;14.48;;;4.82;;
28523;SDS011;15734;50.904;6.922;2023-04-24T12:45:22;15.60;;;5.00;;
28523;SDS011;15734;50.904;6.922;2023-04-24T12:47:50;13.88;;;4.50;;
28523;SDS011;15734;50.904;6.922;2023-04-24T12:50:15;13.57;;;4.40;;
28523;SDS011;15734;50.904;6.922;2023-04-24T12:52:42;11.23;;;4.38;;
28523;SDS011;15734;50.904;6.922;2023-04-24T12:55:08;15.98;;;5.72;;
28523;SDS011;15734;50.904;6.922;2023-04-24T12:57:35;10.65;;;3.60;;
28523;SDS011;15734;50.904;6.922;2023-04-24T13:00:02;18.33;;;4.35;;
28523;SDS011;15734;50.904;6.922;2023-04-24T13:02:29;12.40;;;3.92;;
28523;SDS011;15734;50.904;6.922;2023-04-24T13:04:56;11.45;;;3.97;;
28523;SDS011;15734;50.904;6.922;2023-04-24T13:07:23;14.93;;;4.47;;
28523;SDS011;15734;50.904;6.922;2023-04-24T13:09:49;14.82;;;5.20;;
28523;SDS011;15734;50.904;6.922;2023-04-24T13:12:16;11.57;;;4.75;;
28523;SDS011;15734;50.904;6.922;2023-04-24T13:14:42;13.02;;;5.30;;
28523;SDS011;15734;50.904;6.922;2023-04-24T13:17:07;10.05;;;4.60;;
28523;SDS011;15734;50.904;6.922;2023-04-24T13:19:37;19.88;;;5.97;;
28523;SDS011;15734;50.904;6.922;2023-04-24T13:22:04;15.85;;;5.45;;
28523;SDS011;15734;50.904;6.922;2023-04-24T13:24:30;12.10;;;4.85;;
28523;SDS011;15734;50.904;6.922;2023-04-24T13:26:56;16.60;;;5.13;;
28523;SDS011;15734;50.904;6.922;2023-04-24T13:29:22;14.15;;;5.38;;
28523;SDS011;15734;50.904;6.922;2023-04-24T13:31:54;16.02;;;5.47;;
28523;SDS011;15734;50.904;6.922;2023-04-24T13:34:21;12.40;;;4.82;;
28523;SDS011;15734;50.904;6.922;2023-04-24T13:36:47;13.10;;;5.18;;
28523;SDS011;15734;50.904;6.922;2023-04-24T13:39:13;13.93;;;4.45;;
28523;SDS011;15734;50.904;6.922;2023-04-24T13:41:38;13.50;;;4.55;;
28523;SDS011;15734;50.904;6.922;2023-04-24T13:44:05;14.60;;;4.75;;
28523;SDS011;15734;50.904;6.922;2023-04-24T13:46:31;15.95;;;4.30;;
28523;SDS011;15734;50.904;6.922;2023-04-24T13:48:56;13.00;;;5.35;;
28523;SDS011;15734;50.904;6.922;2023-04-24T13:51:22;15.48;;;5.03;;
28523;SDS011;15734;50.904;6.922;2023-04-24T13:53:49;16.60;;;5.80;;
28523;SDS011;15734;50.904;6.922;2023-04-24T13:56:14;16.27;;;5.95;;
28523;SDS011;15734;50.904;6.922;2023-04-24T13:58:40;10.85;;;5.03;;
28523;SDS011;15734;50.904;6.922;2023-04-24T14:01:05;19.25;;;5.35;;
28523;SDS011;15734;50.904;6.922;2023-04-24T14:03:32;13.82;;;5.85;;
28523;SDS011;15734;50.904;6.922;2023-04-24T14:05:58;18.58;;;5.55;;
28523;SDS011;15734;50.904;6.922;2023-04-24T14:08:24;8.02;;;4.68;;
28523;SDS011;15734;50.904;6.922;2023-04-24T14:10:50;15.95;;;5.43;;
28523;SDS011;15734;50.904;6.922;2023-04-24T14:13:16;13.68;;;5.78;;
28523;SDS011;15734;50.904;6.922;2023-04-24T14:15:41;11.75;;;5.13;;
28523;SDS011;15734;50.904;6.922;2023-04-24T14:18:07;13.73;;;5.07;;
28523;SDS011;15734;50.904;6.922;2023-04-24T14:20:33;21.60;;;4.50;;
28523;SDS011;15734;50.904;6.922;2023-04-24T14:22:58;11.43;;;3.83;;
28523;SDS011;15734;50.904;6.922;2023-04-24T14:25:24;8.30;;;4.40;;
28523;SDS011;15734;50.904;6.922;2023-04-24T14:27:50;11.20;;;4.25;;
28523;SDS011;15734;50.904;6.922;2023-04-24T14:30:16;9.68;;;4.40;;
28523;SDS011;15734;50.904;6.922;2023-04-24T14:32:42;11.80;;;4.30;;
28523;SDS011;15734;50.904;6.922;2023-04-24T14:35:07;20.10;;;5.18;;
28523;SDS011;15734;50.904;6.922;2023-04-24T14:37:33;16.27;;;4.18;;
28523;SDS011;15734;50.904;6.922;2023-04-24T14:39:59;13.55;;;4.95;;
28523;SDS011;15734;50.904;6.922;2023-04-24T14:42:24;10.63;;;4.35;;
28523;SDS011;15734;50.904;6.922;2023-04-24T14:44:50;14.15;;;3.97;;
28523;SDS011;15734;50.904;6.922;2023-04-24T14:47:16;8.30;;;3.53;;
28523;SDS011;15734;50.904;6.922;2023-04-24T14:49:46;10.40;;;4.45;;
28523;SDS011;15734;50.904;6.922;2023-04-24T14:52:12;10.80;;;3.95;;
28523;SDS011;15734;50.904;6.922;2023-04-24T14:54:38;7.78;;;3.90;;
28523;SDS011;15734;50.904;6.922;2023-04-24T14:57:03;9.68;;;4.20;;
28523;SDS011;15734;50.904;6.922;2023-04-24T14:59:29;15.38;;;3.83;;
28523;SDS011;15734;50.904;6.922;2023-04-24T15:01:56;11.93;;;4.13;;
28523;SDS011;15734;50.904;6.922;2023-04-24T15:04:25;7.72;;;4.30;;
28523;SDS011;15734;50.904;6.922;2023-04-24T15:06:52;9.32;;;4.32;;
28523;SDS011;15734;50.904;6.922;2023-04-24T15:09:19;11.00;;;4.60;;
28523;SDS011;15734;50.904;6.922;2023-04-24T15:11:45;15.70;;;3.95;;
28523;SDS011;15734;50.904;6.922;2023-04-24T15:14:11;15.00;;;3.92;;
28523;SDS011;15734;50.904;6.922;2023-04-24T15:16:36;13.85;;;4.50;;
28523;SDS011;15734;50.904;6.922;2023-04-24T15:19:02;5.97;;;3.88;;
28523;SDS011;15734;50.904;6.922;2023-04-24T15:21:27;10.55;;;3.75;;
28523;SDS011;15734;50.904;6.922;2023-04-24T15:23:53;9.40;;;4.13;;
28523;SDS011;15734;50.904;6.922;2023-04-24T15:26:19;12.68;;;4.68;;
28523;SDS011;15734;50.904;6.922;2023-04-24T15:28:44;11.23;;;3.97;;
28523;SDS011;15734;50.904;6.922;2023-04-24T15:31:11;9.63;;;4.13;;
28523;SDS011;15734;50.904;6.922;2023-04-24T15:33:37;5.57;;;3.63;;
28523;SDS011;15734;50.904;6.922;2023-04-24T15:36:03;11.30;;;3.33;;
28523;SDS011;15734;50.904;6.922;2023-04-24T15:38:28;10.57;;;3.67;;
28523;SDS011;15734;50.904;6.922;2023-04-24T15:40:54;11.88;;;3.50;;
28523;SDS011;15734;50.904;6.922;2023-04-24T15:43:19;11.60;;;3.72;;
28523;SDS011;15734;50.904;6.922;2023-04-24T15:45:45;10.98;;;4.43;;
28523;SDS011;15734;50.904;6.922;2023-04-24T15:48:10;8.88;;;3.30;;
28523;SDS011;15734;50.904;6.922;2023-04-24T15:50:36;12.95;;;3.55;;
28523;SDS011;15734;50.904;6.922;2023-04-24T15:53:02;8.57;;;4.00;;
28523;SDS011;15734;50.904;6.922;2023-04-24T15:55:27;11.32;;;3.80;;
28523;SDS011;15734;50.904;6.922;2023-04-24T15:57:53;13.82;;;4.00;;
28523;SDS011;15734;50.904;6.922;2023-04-24T16:00:19;13.63;;;3.97;;
28523;SDS011;15734;50.904;6.922;2023-04-24T16:02:45;10.73;;;4.07;;
28523;SDS011;15734;50.904;6.922;2023-04-24T16:05:10;9.90;;;4.30;;
28523;SDS011;15734;50.904;6.922;2023-04-24T16:07:36;7.97;;;4.15;;
28523;SDS011;15734;50.904;6.922;2023-04-24T16:10:02;14.10;;;5.18;;
28523;SDS011;15734;50.904;6.922;2023-04-24T16:12:28;8.70;;;4.22;;
28523;SDS011;15734;50.904;6.922;2023-04-24T16:14:54;9.82;;;3.42;;
28523;SDS011;15734;50.904;6.922;2023-04-24T16:17:20;16.20;;;3.60;;
28523;SDS011;15734;50.904;6.922;2023-04-24T16:19:45;8.07;;;3.53;;
28523;SDS011;15734;50.904;6.922;2023-04-24T16:22:11;7.28;;;3.80;;
28523;SDS011;15734;50.904;6.922;2023-04-24T16:24:36;5.55;;;3.53;;
28523;SDS011;15734;50.904;6.922;2023-04-24T16:27:02;11.07;;;3.47;;
28523;SDS011;15734;50.904;6.922;2023-04-24T16:29:28;7.65;;;3.10;;
28523;SDS011;15734;50.904;6.922;2023-04-24T16:31:54;6.55;;;3.35;;
28523;SDS011;15734;50.904;6.922;2023-04-24T16:34:23;7.78;;;3.08;;
28523;SDS011;15734;50.904;6.922;2023-04-24T16:36:48;14.85;;;3.47;;
28523;SDS011;15734;50.904;6.922;2023-04-24T16:39:14;7.15;;;2.90;;
28523;SDS011;15734;50.904;6.922;2023-04-24T16:41:39;10.02;;;3.22;;
28523;SDS011;15734;50.904;6.922;2023-04-24T16:44:05;10.07;;;2.88;;
28523;SDS011;15734;50.904;6.922;2023-04-24T16:46:31;7.18;;;3.25;;
28523;SDS011;15734;50.904;6.922;2023-04-24T16:48:56;8.73;;;2.72;;
28523;SDS011;15734;50.904;6.922;2023-04-24T16:51:22;6.40;;;3.00;;
28523;SDS011;15734;50.904;6.922;2023-04-24T16:53:48;8.60;;;2.88;;
28523;SDS011;15734;50.904;6.922;2023-04-24T16:56:14;6.15;;;2.80;;
28523;SDS011;15734;50.904;6.922;2023-04-24T16:58:39;8.13;;;2.35;;
28523;SDS011;15734;50.904;6.922;2023-04-24T17:01:05;16.45;;;3.30;;
28523;SDS011;15734;50.904;6.922;2023-04-24T17:03:30;6.05;;;3.45;;
28523;SDS011;15734;50.904;6.922;2023-04-24T17:05:57;9.40;;;4.15;;
28523;SDS011;15734;50.904;6.922;2023-04-24T17:08:23;10.88;;;3.85;;
28523;SDS011;15734;50.904;6.922;2023-04-24T17:10:48;6.90;;;3.80;;
28523;SDS011;15734;50.904;6.922;2023-04-24T17:13:14;8.13;;;2.40;;
28523;SDS011;15734;50.904;6.922;2023-04-24T17:15:40;6.75;;;3.35;;
28523;SDS011;15734;50.904;6.922;2023-04-24T17:18:06;5.60;;;3.25;;
28523;SDS011;15734;50.904;6.922;2023-04-24T17:20:32;7.78;;;3.50;;
28523;SDS011;15734;50.904;6.922;2023-04-24T17:22:57;7.65;;;2.45;;
28523;SDS011;15734;50.904;6.922;2023-04-24T17:25:23;9.40;;;2.50;;
28523;SDS011;15734;50.904;6.922;2023-04-24T17:27:49;6.60;;;2.40;;
28523;SDS011;15734;50.904;6.922;2023-04-24T17:30:15;5.07;;;2.17;;
28523;SDS011;15734;50.904;6.922;2023-04-24T17:32:41;8.30;;;2.05;;
28523;SDS011;15734;50.904;6.922;2023-04-24T17:35:07;9.90;;;2.45;;
28523;SDS011;15734;50.904;6.922;2023-04-24T17:37:33;14.18;;;2.08;;
28523;SDS011;15734;50.904;6.922;2023-04-24T17:39:59;6.47;;;1.85;;
28523;SDS011;15734;50.904;6.922;2023-04-24T17:42:25;3.10;;;1.80;;
28523;SDS011;15734;50.904;6.922;2023-04-24T17:44:51;5.65;;;2.00;;
28523;SDS011;15734;50.904;6.922;2023-04-24T17:47:17;10.95;;;2.67;;
28523;SDS011;15734;50.904;6.922;2023-04-24T17:49:44;6.40;;;2.30;;
28523;SDS011;15734;50.904;6.922;2023-04-24T17:52:09;2.92;;;1.42;;
28523;SDS011;15734;50.904;6.922;2023-04-24T17:54:36;6.50;;;1.80;;
28523;SDS011;15734;50.904;6.922;2023-04-24T17:57:01;3.20;;;2.22;;
28523;SDS011;15734;50.904;6.922;2023-04-24T17:59:27;5.32;;;2.25;;
28523;SDS011;15734;50.904;6.922;2023-04-24T18:01:52;5.68;;;2.05;;
28523;SDS011;15734;50.904;6.922;2023-04-24T18:04:18;8.90;;;2.00;;
28523;SDS011;15734;50.904;6.922;2023-04-24T18:06:44;5.93;;;2.03;;
28523;SDS011;15734;50.904;6.922;2023-04-24T18:09:09;3.47;;;1.98;;
28523;SDS011;15734;50.904;6.922;2023-04-24T18:11:35;4.30;;;1.95;;
28523;SDS011;15734;50.904;6.922;2023-04-24T18:14:01;4.15;;;2.03;;
28523;SDS011;15734;50.904;6.922;2023-04-24T18:16:27;10.18;;;1.90;;
28523;SDS011;15734;50.904;6.922;2023-04-24T18:18:53;4.07;;;1.95;;
28523;SDS011;15734;50.904;6.922;2023-04-24T18:21:18;6.85;;;1.92;;
28523;SDS011;15734;50.904;6.922;2023-04-24T18:23:44;4.65;;;2.08;;
28523;SDS011;15734;50.904;6.922;2023-04-24T18:26:10;6.03;;;1.63;;
28523;SDS011;15734;50.904;6.922;2023-04-24T18:28:40;4.25;;;1.75;;
28523;SDS011;15734;50.904;6.922;2023-04-24T18:31:09;4.40;;;1.70;;
28523;SDS011;15734;50.904;6.922;2023-04-24T18:33:34;4.10;;;1.95;;
28523;SDS011;15734;50.904;6.922;2023-04-24T18:36:00;3.03;;;1.98;;
28523;SDS011;15734;50.904;6.922;2023-04-24T18:38:27;10.55;;;1.73;;
28523;SDS011;15734;50.904;6.922;2023-04-24T18:40:53;2.65;;;1.40;;
28523;SDS011;15734;50.904;6.922;2023-04-24T18:43:18;4.47;;;1.60;;
28523;SDS011;15734;50.904;6.922;2023-04-24T18:45:45;5.55;;;1.70;;
28523;SDS011;15734;50.904;6.922;2023-04-24T18:48:11;12.88;;;2.10;;
28523;SDS011;15734;50.904;6.922;2023-04-24T18:50:36;4.82;;;1.90;;
28523;SDS011;15734;50.904;6.922;2023-04-24T18:53:04;3.17;;;1.83;;
28523;SDS011;15734;50.904;6.922;2023-04-24T18:55:31;6.93;;;1.88;;
28523;SDS011;15734;50.904;6.922;2023-04-24T18:57:57;8.05;;;2.17;;
28523;SDS011;15734;50.904;6.922;2023-04-24T19:00:23;12.57;;;2.47;;
28523;SDS011;15734;50.904;6.922;2023-04-24T19:02:48;6.25;;;2.28;;
28523;SDS011;15734;50.904;6.922;2023-04-24T19:05:14;2.47;;;1.52;;
28523;SDS011;15734;50.904;6.922;2023-04-24T19:07:40;6.80;;;2.38;;
28523;SDS011;15734;50.904;6.922;2023-04-24T19:10:06;6.43;;;1.90;;
28523;SDS011;15734;50.904;6.922;2023-04-24T19:12:32;6.80;;;2.30;;
28523;SDS011;15734;50.904;6.922;2023-04-24T19:14:58;9.38;;;1.83;;
28523;SDS011;15734;50.904;6.922;2023-04-24T19:17:24;6.63;;;2.45;;
28523;SDS011;15734;50.904;6.922;2023-04-24T19:19:49;6.40;;;2.20;;
28523;SDS011;15734;50.904;6.922;2023-04-24T19:22:16;5.43;;;2.42;;
28523;SDS011;15734;50.904;6.922;2023-04-24T19:24:42;7.28;;;2.40;;
28523;SDS011;15734;50.904;6.922;2023-04-24T19:27:08;5.25;;;2.25;;
28523;SDS011;15734;50.904;6.922;2023-04-24T19:29:33;8.80;;;2.17;;
28523;SDS011;15734;50.904;6.922;2023-04-24T19:31:59;5.22;;;2.53;;
28523;SDS011;15734;50.904;6.922;2023-04-24T19:34:24;6.72;;;2.25;;
28523;SDS011;15734;50.904;6.922;2023-04-24T19:36:50;4.10;;;1.83;;
28523;SDS011;15734;50.904;6.922;2023-04-24T19:39:16;8.82;;;2.60;;
28523;SDS011;15734;50.904;6.922;2023-04-24T19:41:41;5.43;;;2.38;;
28523;SDS011;15734;50.904;6.922;2023-04-24T19:44:07;5.05;;;2.30;;
28523;SDS011;15734;50.904;6.922;2023-04-24T19:46:32;8.65;;;2.40;;
28523;SDS011;15734;50.904;6.922;2023-04-24T19:48:58;7.00;;;2.45;;
28523;SDS011;15734;50.904;6.922;2023-04-24T19:51:24;10.85;;;3.08;;
28523;SDS011;15734;50.904;6.922;2023-04-24T19:53:50;11.40;;;2.58;;
28523;SDS011;15734;50.904;6.922;2023-04-24T19:56:15;9.98;;;2.72;;
28523;SDS011;15734;50.904;6.922;2023-04-24T19:58:41;4.30;;;2.65;;
28523;SDS011;15734;50.904;6.922;2023-04-24T20:01:06;9.07;;;2.45;;
28523;SDS011;15734;50.904;6.922;2023-04-24T20:03:32;6.15;;;2.58;;
28523;SDS011;15734;50.904;6.922;2023-04-24T20:05:58;4.90;;;2.45;;
28523;SDS011;15734;50.904;6.922;2023-04-24T20:08:23;8.38;;;2.67;;
28523;SDS011;15734;50.904;6.922;2023-04-24T20:10:49;9.20;;;2.97;;
28523;SDS011;15734;50.904;6.922;2023-04-24T20:13:16;17.48;;;2.75;;
28523;SDS011;15734;50.904;6.922;2023-04-24T20:15:41;4.95;;;2.67;;
28523;SDS011;15734;50.904;6.922;2023-04-24T20:18:07;5.13;;;3.33;;
28523;SDS011;15734;50.904;6.922;2023-04-24T20:20:32;13.25;;;2.55;;
28523;SDS011;15734;50.904;6.922;2023-04-24T20:23:02;9.10;;;2.28;;
28523;SDS011;15734;50.904;6.922;2023-04-24T20:25:28;5.10;;;2.33;;
28523;SDS011;15734;50.904;6.922;2023-04-24T20:27:54;5.00;;;3.20;;
28523;SDS011;15734;50.904;6.922;2023-04-24T20:30:19;5.15;;;2.58;;
28523;SDS011;15734;50.904;6.922;2023-04-24T20:32:45;8.20;;;2.72;;
28523;SDS011;15734;50.904;6.922;2023-04-24T20:35:11;11.80;;;2.65;;
28523;SDS011;15734;50.904;6.922;2023-04-24T20:37:36;7.18;;;2.45;;
28523;SDS011;15734;50.904;6.922;2023-04-24T20:40:02;5.60;;;2.58;;
28523;SDS011;15734;50.904;6.922;2023-04-24T20:42:32;4.97;;;2.17;;
28523;SDS011;15734;50.904;6.922;2023-04-24T20:44:58;9.20;;;2.90;;
28523;SDS011;15734;50.904;6.922;2023-04-24T20:47:24;4.85;;;2.85;;
28523;SDS011;15734;50.904;6.922;2023-04-24T20:49:50;11.50;;;2.50;;
28523;SDS011;15734;50.904;6.922;2023-04-24T20:52:16;9.05;;;2.65;;
28523;SDS011;15734;50.904;6.922;2023-04-24T20:54:42;8.95;;;2.67;;
28523;SDS011;15734;50.904;6.922;2023-04-24T20:57:08;3.40;;;2.40;;
28523;SDS011;15734;50.904;6.922;2023-04-24T20:59:33;7.88;;;3.15;;
28523;SDS011;15734;50.904;6.922;2023-04-24T21:01:59;6.18;;;2.25;;
28523;SDS011;15734;50.904;6.922;2023-04-24T21:04:24;10.77;;;2.60;;
28523;SDS011;15734;50.904;6.922;2023-04-24T21:06:50;6.57;;;2.55;;
28523;SDS011;15734;50.904;6.922;2023-04-24T21:09:16;13.88;;;2.83;;
28523;SDS011;15734;50.904;6.922;2023-04-24T21:11:41;9.02;;;3.10;;
28523;SDS011;15734;50.904;6.922;2023-04-24T21:14:07;9.75;;;3.28;;
28523;SDS011;15734;50.904;6.922;2023-04-24T21:16:33;13.57;;;3.00;;
28523;SDS011;15734;50.904;6.922;2023-04-24T21:18:58;4.45;;;2.58;;
28523;SDS011;15734;50.904;6.922;2023-04-24T21:21:24;6.38;;;3.10;;
28523;SDS011;15734;50.904;6.922;2023-04-24T21:23:49;12.85;;;2.75;;
28523;SDS011;15734;50.904;6.922;2023-04-24T21:26:15;10.40;;;2.67;;
28523;SDS011;15734;50.904;6.922;2023-04-24T21:28:41;6.45;;;2.70;;
28523;SDS011;15734;50.904;6.922;2023-04-24T21:31:07;6.88;;;2.95;;
28523;SDS011;15734;50.904;6.922;2023-04-24T21:33:32;7.78;;;2.60;;
28523;SDS011;15734;50.904;6.922;2023-04-24T21:35:58;10.95;;;2.72;;
28523;SDS011;15734;50.904;6.922;2023-04-24T21:38:23;11.88;;;2.85;;
28523;SDS011;15734;50.904;6.922;2023-04-24T21:40:49;7.97;;;2.90;;
28523;SDS011;15734;50.904;6.922;2023-04-24T21:43:19;7.15;;;2.53;;
28523;SDS011;15734;50.904;6.922;2023-04-24T21:45:45;6.50;;;2.63;;
28523;SDS011;15734;50.904;6.922;2023-04-24T21:48:11;13.27;;;2.80;;
28523;SDS011;15734;50.904;6.922;2023-04-24T21:50:36;10.85;;;2.42;;
28523;SDS011;15734;50.904;6.922;2023-04-24T21:53:02;6.63;;;2.65;;
28523;SDS011;15734;50.904;6.922;2023-04-24T21:55:27;10.93;;;2.95;;
28523;SDS011;15734;50.904;6.922;2023-04-24T21:57:53;11.32;;;2.75;;
28523;SDS011;15734;50.904;6.922;2023-04-24T22:00:19;11.98;;;3.47;;
28523;SDS011;15734;50.904;6.922;2023-04-24T22:02:45;9.13;;;3.25;;
28523;SDS011;15734;50.904;6.922;2023-04-24T22:05:10;11.88;;;2.63;;
28523;SDS011;15734;50.904;6.922;2023-04-24T22:07:39;5.93;;;3.05;;
28523;SDS011;15734;50.904;6.922;2023-04-24T22:10:08;7.43;;;3.30;;
28523;SDS011;15734;50.904;6.922;2023-04-24T22:12:35;11.45;;;3.10;;
28523;SDS011;15734;50.904;6.922;2023-04-24T22:15:01;13.80;;;4.45;;
28523;SDS011;15734;50.904;6.922;2023-04-24T22:17:28;6.03;;;2.92;;
28523;SDS011;15734;50.904;6.922;2023-04-24T22:19:53;9.93;;;3.45;;
28523;SDS011;15734;50.904;6.922;2023-04-24T22:22:19;7.28;;;3.45;;
28523;SDS011;15734;50.904;6.922;2023-04-24T22:24:44;19.05;;;4.18;;
28523;SDS011;15734;50.904;6.922;2023-04-24T22:27:10;12.77;;;3.50;;
28523;SDS011;15734;50.904;6.922;2023-04-24T22:29:36;10.40;;;3.20;;
28523;SDS011;15734;50.904;6.922;2023-04-24T22:32:01;8.50;;;3.20;;
28523;SDS011;15734;50.904;6.922;2023-04-24T22:34:27;12.30;;;3.85;;
28523;SDS011;15734;50.904;6.922;2023-04-24T22:36:52;8.13;;;3.55;;
28523;SDS011;15734;50.904;6.922;2023-04-24T22:39:18;12.70;;;3.58;;
28523;SDS011;15734;50.904;6.922;2023-04-24T22:41:43;9.63;;;3.65;;
28523;SDS011;15734;50.904;6.922;2023-04-24T22:44:09;10.50;;;3.70;;
28523;SDS011;15734;50.904;6.922;2023-04-24T22:46:35;7.45;;;4.63;;
28523;SDS011;15734;50.904;6.922;2023-04-24T22:49:01;9.25;;;3.00;;
28523;SDS011;15734;50.904;6.922;2023-04-24T22:51:26;18.10;;;4.05;;
28523;SDS011;15734;50.904;6.922;2023-04-24T22:53:53;14.07;;;3.88;;
28523;SDS011;15734;50.904;6.922;2023-04-24T22:56:19;14.20;;;4.53;;
28523;SDS011;15734;50.904;6.922;2023-04-24T22:58:44;19.17;;;6.43;;
28523;SDS011;15734;50.904;6.922;2023-04-24T23:01:10;8.90;;;3.70;;
28523;SDS011;15734;50.904;6.922;2023-04-24T23:03:36;17.05;;;4.65;;
28523;SDS011;15734;50.904;6.922;2023-04-24T23:06:01;13.75;;;3.70;;
28523;SDS011;15734;50.904;6.922;2023-04-24T23:08:28;18.60;;;3.78;;
28523;SDS011;15734;50.904;6.922;2023-04-24T23:10:54;12.70;;;3.78;;
28523;SDS011;15734;50.904;6.922;2023-04-24T23:13:20;12.25;;;3.80;;
28523;SDS011;15734;50.904;6.922;2023-04-24T23:15:46;11.85;;;3.53;;
28523;SDS011;15734;50.904;6.922;2023-04-24T23:18:11;9.27;;;3.90;;
28523;SDS011;15734;50.904;6.922;2023-04-24T23:20:37;9.15;;;3.65;;
28523;SDS011;15734;50.904;6.922;2023-04-24T23:23:02;13.07;;;3.35;;
28523;SDS011;15734;50.904;6.922;2023-04-24T23:25:29;15.43;;;3.85;;
28523;SDS011;15734;50.904;6.922;2023-04-24T23:27:56;14.32;;;3.72;;
28523;SDS011;15734;50.904;6.922;2023-04-24T23:30:22;14.63;;;3.47;;
28523;SDS011;15734;50.904;6.922;2023-04-24T23:32:47;12.00;;;3.60;;
28523;SDS011;15734;50.904;6.922;2023-04-24T23:35:13;24.52;;;3.50;;
28523;SDS011;15734;50.904;6.922;2023-04-24T23:37:39;15.98;;;3.50;;
28523;SDS011;15734;50.904;6.922;2023-04-24T23:40:05;18.17;;;3.78;;
28523;SDS011;15734;50.904;6.922;2023-04-24T23:42:33;13.40;;;4.10;;
28523;SDS011;15734;50.904;6.922;2023-04-24T23:44:59;12.45;;;3.38;;
28523;SDS011;15734;50.904;6.922;2023-04-24T23:47:25;18.90;;;3.83;;
28523;SDS011;15734;50.904;6.922;2023-04-24T23:49:50;9.75;;;3.85;;
28523;SDS011;15734;50.904;6.922;2023-04-24T23:52:16;14.25;;;4.30;;
28523;SDS011;15734;50.904;6.922;2023-04-24T23:54:41;17.33;;;4.10;;
28523;SDS011;15734;50.904;6.922;2023-04-24T23:57:07;10.20;;;3.42;;
28523;SDS011;15734;50.904;6.922;2023-04-24T23:59:33;11.80;;;3.88;;
